sensor_id;sensor_type;location;lat;lon;timestamp;P1;durP1;ratioP1;P2;durP2;ratioP2
45970;SDS011;31681;48.982;8.394;2023-02-03T00:01:36;8.87;;;3.27;;
45970;SDS011;31681;48.982;8.394;2023-02-03T00:04:01;4.77;;;1.87;;
45970;SDS011;31681;48.982;8.394;2023-02-03T00:06:26;5.63;;;2.50;;
45970;SDS011;31681;48.982;8.394;2023-02-03T00:08:52;3.27;;;2.03;;
45970;SDS011;31681;48.982;8.394;2023-02-03T00:11:19;4.03;;;2.00;;
45970;SDS011;31681;48.982;8.394;2023-02-03T00:13:45;3.20;;;1.90;;
45970;SDS011;31681;48.982;8.394;2023-02-03T00:16:10;3.57;;;1.90;;
45970;SDS011;31681;48.982;8.394;2023-02-03T00:18:35;6.27;;;2.10;;
45970;SDS011;31681;48.982;8.394;2023-02-03T00:21:01;6.07;;;2.10;;
45970;SDS011;31681;48.982;8.394;2023-02-03T00:23:26;7.53;;;2.73;;
45970;SDS011;31681;48.982;8.394;2023-02-03T00:25:56;3.90;;;1.90;;
45970;SDS011;31681;48.982;8.394;2023-02-03T00:28:21;4.43;;;1.80;;
45970;SDS011;31681;48.982;8.394;2023-02-03T00:33:18;3.97;;;1.87;;
45970;SDS011;31681;48.982;8.394;2023-02-03T00:35:43;3.03;;;1.60;;
45970;SDS011;31681;48.982;8.394;2023-02-03T00:38:08;3.60;;;1.60;;
45970;SDS011;31681;48.982;8.394;2023-02-03T00:40:34;5.33;;;1.90;;
45970;SDS011;31681;48.982;8.394;2023-02-03T00:43:01;3.53;;;1.70;;
45970;SDS011;31681;48.982;8.394;2023-02-03T00:45:30;5.03;;;2.03;;
45970;SDS011;31681;48.982;8.394;2023-02-03T00:47:55;6.07;;;2.30;;
45970;SDS011;31681;48.982;8.394;2023-02-03T00:50:21;2.93;;;1.63;;
45970;SDS011;31681;48.982;8.394;2023-02-03T00:52:46;4.33;;;1.80;;
45970;SDS011;31681;48.982;8.394;2023-02-03T00:55:12;4.13;;;1.70;;
45970;SDS011;31681;48.982;8.394;2023-02-03T00:57:37;3.40;;;2.10;;
45970;SDS011;31681;48.982;8.394;2023-02-03T01:00:03;4.70;;;1.70;;
45970;SDS011;31681;48.982;8.394;2023-02-03T01:02:31;3.80;;;1.90;;
45970;SDS011;31681;48.982;8.394;2023-02-03T01:04:56;3.63;;;1.53;;
45970;SDS011;31681;48.982;8.394;2023-02-03T01:07:21;5.93;;;1.73;;
45970;SDS011;31681;48.982;8.394;2023-02-03T01:09:47;3.47;;;1.70;;
45970;SDS011;31681;48.982;8.394;2023-02-03T01:12:12;2.40;;;1.40;;
45970;SDS011;31681;48.982;8.394;2023-02-03T01:14:39;2.47;;;1.90;;
45970;SDS011;31681;48.982;8.394;2023-02-03T01:17:04;4.13;;;1.90;;
45970;SDS011;31681;48.982;8.394;2023-02-03T01:19:30;2.13;;;1.57;;
45970;SDS011;31681;48.982;8.394;2023-02-03T01:21:57;2.27;;;1.50;;
45970;SDS011;31681;48.982;8.394;2023-02-03T01:24:22;3.57;;;1.60;;
45970;SDS011;31681;48.982;8.394;2023-02-03T01:26:48;4.73;;;2.03;;
45970;SDS011;31681;48.982;8.394;2023-02-03T01:29:13;2.47;;;1.50;;
45970;SDS011;31681;48.982;8.394;2023-02-03T01:31:40;3.57;;;1.60;;
45970;SDS011;31681;48.982;8.394;2023-02-03T01:34:07;2.47;;;1.67;;
45970;SDS011;31681;48.982;8.394;2023-02-03T01:36:34;3.80;;;1.60;;
45970;SDS011;31681;48.982;8.394;2023-02-03T01:39:01;3.03;;;1.80;;
45970;SDS011;31681;48.982;8.394;2023-02-03T01:41:28;5.53;;;1.93;;
45970;SDS011;31681;48.982;8.394;2023-02-03T01:43:55;2.93;;;1.73;;
45970;SDS011;31681;48.982;8.394;2023-02-03T01:46:25;2.80;;;1.97;;
45970;SDS011;31681;48.982;8.394;2023-02-03T01:48:52;2.70;;;1.70;;
45970;SDS011;31681;48.982;8.394;2023-02-03T01:51:19;4.40;;;1.60;;
45970;SDS011;31681;48.982;8.394;2023-02-03T01:53:45;2.10;;;1.70;;
45970;SDS011;31681;48.982;8.394;2023-02-03T01:56:10;3.53;;;1.60;;
45970;SDS011;31681;48.982;8.394;2023-02-03T01:58:36;5.07;;;1.60;;
45970;SDS011;31681;48.982;8.394;2023-02-03T02:01:03;4.63;;;1.83;;
45970;SDS011;31681;48.982;8.394;2023-02-03T02:03:33;4.57;;;1.57;;
45970;SDS011;31681;48.982;8.394;2023-02-03T02:06:07;4.13;;;1.73;;
45970;SDS011;31681;48.982;8.394;2023-02-03T02:08:33;5.67;;;2.00;;
45970;SDS011;31681;48.982;8.394;2023-02-03T02:10:59;3.07;;;1.50;;
45970;SDS011;31681;48.982;8.394;2023-02-03T02:13:24;1.90;;;1.30;;
45970;SDS011;31681;48.982;8.394;2023-02-03T02:15:56;4.13;;;1.70;;
45970;SDS011;31681;48.982;8.394;2023-02-03T02:18:35;2.87;;;1.70;;
45970;SDS011;31681;48.982;8.394;2023-02-03T02:23:35;2.73;;;1.50;;
45970;SDS011;31681;48.982;8.394;2023-02-03T02:33:37;2.40;;;1.63;;
45970;SDS011;31681;48.982;8.394;2023-02-03T02:43:34;1.93;;;1.50;;
45970;SDS011;31681;48.982;8.394;2023-02-03T02:46:11;1.93;;;1.20;;
45970;SDS011;31681;48.982;8.394;2023-02-03T02:51:05;3.90;;;1.60;;
45970;SDS011;31681;48.982;8.394;2023-02-03T02:53:38;2.17;;;1.50;;
45970;SDS011;31681;48.982;8.394;2023-02-03T02:56:06;2.17;;;1.40;;
45970;SDS011;31681;48.982;8.394;2023-02-03T02:58:33;2.47;;;1.47;;
45970;SDS011;31681;48.982;8.394;2023-02-03T03:00:59;1.73;;;1.60;;
45970;SDS011;31681;48.982;8.394;2023-02-03T03:03:25;4.97;;;1.70;;
45970;SDS011;31681;48.982;8.394;2023-02-03T03:05:55;3.53;;;1.63;;
45970;SDS011;31681;48.982;8.394;2023-02-03T03:08:34;3.33;;;1.57;;
45970;SDS011;31681;48.982;8.394;2023-02-03T03:11:01;2.70;;;1.50;;
45970;SDS011;31681;48.982;8.394;2023-02-03T03:13:29;4.00;;;1.57;;
45970;SDS011;31681;48.982;8.394;2023-02-03T03:15:56;1.47;;;1.37;;
45970;SDS011;31681;48.982;8.394;2023-02-03T03:18:38;2.90;;;1.50;;
45970;SDS011;31681;48.982;8.394;2023-02-03T03:21:07;4.60;;;1.60;;
45970;SDS011;31681;48.982;8.394;2023-02-03T03:23:36;4.33;;;1.80;;
45970;SDS011;31681;48.982;8.394;2023-02-03T03:26:17;2.20;;;1.30;;
45970;SDS011;31681;48.982;8.394;2023-02-03T03:28:48;2.57;;;1.30;;
45970;SDS011;31681;48.982;8.394;2023-02-03T03:31:15;2.80;;;1.80;;
45970;SDS011;31681;48.982;8.394;2023-02-03T03:33:41;4.13;;;1.70;;
45970;SDS011;31681;48.982;8.394;2023-02-03T03:38:40;2.33;;;1.30;;
45970;SDS011;31681;48.982;8.394;2023-02-03T03:41:07;5.13;;;1.60;;
45970;SDS011;31681;48.982;8.394;2023-02-03T03:43:37;2.37;;;1.30;;
45970;SDS011;31681;48.982;8.394;2023-02-03T03:46:09;1.97;;;1.27;;
45970;SDS011;31681;48.982;8.394;2023-02-03T03:51:19;3.27;;;1.50;;
45970;SDS011;31681;48.982;8.394;2023-02-03T03:53:48;2.00;;;1.23;;
45970;SDS011;31681;48.982;8.394;2023-02-03T03:56:17;2.53;;;1.50;;
45970;SDS011;31681;48.982;8.394;2023-02-03T03:58:44;3.20;;;1.37;;
45970;SDS011;31681;48.982;8.394;2023-02-03T04:01:12;2.17;;;1.13;;
45970;SDS011;31681;48.982;8.394;2023-02-03T04:03:49;2.03;;;1.47;;
45970;SDS011;31681;48.982;8.394;2023-02-03T04:06:16;1.50;;;1.10;;
45970;SDS011;31681;48.982;8.394;2023-02-03T04:08:42;1.53;;;1.30;;
45970;SDS011;31681;48.982;8.394;2023-02-03T04:11:07;1.30;;;1.03;;
45970;SDS011;31681;48.982;8.394;2023-02-03T04:13:32;2.30;;;1.10;;
45970;SDS011;31681;48.982;8.394;2023-02-03T04:15:58;2.27;;;1.00;;
45970;SDS011;31681;48.982;8.394;2023-02-03T04:18:23;5.60;;;1.50;;
45970;SDS011;31681;48.982;8.394;2023-02-03T04:20:49;3.00;;;1.50;;
45970;SDS011;31681;48.982;8.394;2023-02-03T04:23:14;3.43;;;1.20;;
45970;SDS011;31681;48.982;8.394;2023-02-03T04:25:40;1.77;;;1.23;;
45970;SDS011;31681;48.982;8.394;2023-02-03T04:28:05;3.17;;;1.23;;
45970;SDS011;31681;48.982;8.394;2023-02-03T04:30:30;3.10;;;1.20;;
45970;SDS011;31681;48.982;8.394;2023-02-03T04:32:56;1.77;;;1.30;;
45970;SDS011;31681;48.982;8.394;2023-02-03T04:35:21;2.33;;;1.57;;
45970;SDS011;31681;48.982;8.394;2023-02-03T04:37:47;3.37;;;1.37;;
45970;SDS011;31681;48.982;8.394;2023-02-03T04:40:12;2.30;;;1.20;;
45970;SDS011;31681;48.982;8.394;2023-02-03T04:42:38;2.53;;;1.30;;
45970;SDS011;31681;48.982;8.394;2023-02-03T04:45:04;2.20;;;1.10;;
45970;SDS011;31681;48.982;8.394;2023-02-03T04:47:30;2.73;;;1.13;;
45970;SDS011;31681;48.982;8.394;2023-02-03T04:49:55;1.10;;;1.00;;
45970;SDS011;31681;48.982;8.394;2023-02-03T04:52:20;2.23;;;1.20;;
45970;SDS011;31681;48.982;8.394;2023-02-03T04:54:46;1.27;;;1.00;;
45970;SDS011;31681;48.982;8.394;2023-02-03T04:57:11;2.53;;;1.43;;
45970;SDS011;31681;48.982;8.394;2023-02-03T04:59:37;3.37;;;1.30;;
45970;SDS011;31681;48.982;8.394;2023-02-03T05:02:02;1.87;;;1.40;;
45970;SDS011;31681;48.982;8.394;2023-02-03T05:04:30;2.10;;;1.20;;
45970;SDS011;31681;48.982;8.394;2023-02-03T05:06:56;2.70;;;1.13;;
45970;SDS011;31681;48.982;8.394;2023-02-03T05:09:22;2.47;;;1.17;;
45970;SDS011;31681;48.982;8.394;2023-02-03T05:11:47;3.37;;;1.00;;
45970;SDS011;31681;48.982;8.394;2023-02-03T05:14:13;3.03;;;1.33;;
45970;SDS011;31681;48.982;8.394;2023-02-03T05:16:38;1.10;;;1.00;;
45970;SDS011;31681;48.982;8.394;2023-02-03T05:19:03;3.33;;;1.50;;
45970;SDS011;31681;48.982;8.394;2023-02-03T05:21:29;1.63;;;1.23;;
45970;SDS011;31681;48.982;8.394;2023-02-03T05:23:54;1.63;;;1.20;;
45970;SDS011;31681;48.982;8.394;2023-02-03T05:26:19;3.03;;;1.40;;
45970;SDS011;31681;48.982;8.394;2023-02-03T05:28:45;2.83;;;1.10;;
45970;SDS011;31681;48.982;8.394;2023-02-03T05:31:10;1.67;;;1.20;;
45970;SDS011;31681;48.982;8.394;2023-02-03T05:33:36;2.87;;;1.50;;
45970;SDS011;31681;48.982;8.394;2023-02-03T05:36:01;2.57;;;1.10;;
45970;SDS011;31681;48.982;8.394;2023-02-03T05:38:26;2.83;;;1.37;;
45970;SDS011;31681;48.982;8.394;2023-02-03T05:40:52;2.63;;;1.00;;
45970;SDS011;31681;48.982;8.394;2023-02-03T05:43:36;2.50;;;1.47;;
45970;SDS011;31681;48.982;8.394;2023-02-03T05:46:02;1.40;;;1.23;;
45970;SDS011;31681;48.982;8.394;2023-02-03T05:48:28;4.10;;;1.70;;
45970;SDS011;31681;48.982;8.394;2023-02-03T05:50:53;3.57;;;1.43;;
45970;SDS011;31681;48.982;8.394;2023-02-03T05:53:19;3.13;;;1.33;;
45970;SDS011;31681;48.982;8.394;2023-02-03T05:55:44;4.43;;;1.47;;
45970;SDS011;31681;48.982;8.394;2023-02-03T05:58:09;1.90;;;1.40;;
45970;SDS011;31681;48.982;8.394;2023-02-03T06:00:35;5.80;;;1.20;;
45970;SDS011;31681;48.982;8.394;2023-02-03T06:03:00;1.63;;;1.17;;
45970;SDS011;31681;48.982;8.394;2023-02-03T06:05:26;5.10;;;1.23;;
45970;SDS011;31681;48.982;8.394;2023-02-03T06:07:52;3.37;;;1.37;;
45970;SDS011;31681;48.982;8.394;2023-02-03T06:10:17;2.00;;;1.10;;
45970;SDS011;31681;48.982;8.394;2023-02-03T06:12:43;3.07;;;1.40;;
45970;SDS011;31681;48.982;8.394;2023-02-03T06:15:08;1.60;;;1.30;;
45970;SDS011;31681;48.982;8.394;2023-02-03T06:17:34;2.83;;;1.63;;
45970;SDS011;31681;48.982;8.394;2023-02-03T06:20:01;4.83;;;1.47;;
45970;SDS011;31681;48.982;8.394;2023-02-03T06:22:26;2.83;;;1.30;;
45970;SDS011;31681;48.982;8.394;2023-02-03T06:24:52;1.57;;;1.27;;
45970;SDS011;31681;48.982;8.394;2023-02-03T06:27:17;4.07;;;1.70;;
45970;SDS011;31681;48.982;8.394;2023-02-03T06:29:43;2.70;;;1.53;;
45970;SDS011;31681;48.982;8.394;2023-02-03T06:32:08;1.50;;;1.40;;
45970;SDS011;31681;48.982;8.394;2023-02-03T06:34:34;2.43;;;1.17;;
45970;SDS011;31681;48.982;8.394;2023-02-03T06:36:59;2.90;;;1.33;;
45970;SDS011;31681;48.982;8.394;2023-02-03T06:39:24;1.57;;;1.10;;
45970;SDS011;31681;48.982;8.394;2023-02-03T06:41:50;5.77;;;1.90;;
45970;SDS011;31681;48.982;8.394;2023-02-03T06:44:20;2.47;;;1.40;;
45970;SDS011;31681;48.982;8.394;2023-02-03T06:46:45;2.60;;;1.47;;
45970;SDS011;31681;48.982;8.394;2023-02-03T06:49:11;2.20;;;1.27;;
45970;SDS011;31681;48.982;8.394;2023-02-03T06:51:36;2.20;;;1.60;;
45970;SDS011;31681;48.982;8.394;2023-02-03T06:54:02;3.67;;;1.40;;
45970;SDS011;31681;48.982;8.394;2023-02-03T06:56:31;2.10;;;1.37;;
45970;SDS011;31681;48.982;8.394;2023-02-03T06:58:57;4.20;;;1.43;;
45970;SDS011;31681;48.982;8.394;2023-02-03T07:01:23;2.83;;;1.43;;
45970;SDS011;31681;48.982;8.394;2023-02-03T07:03:50;2.43;;;1.53;;
45970;SDS011;31681;48.982;8.394;2023-02-03T07:06:15;5.30;;;1.60;;
45970;SDS011;31681;48.982;8.394;2023-02-03T07:08:41;2.30;;;1.30;;
45970;SDS011;31681;48.982;8.394;2023-02-03T07:11:06;3.20;;;1.57;;
45970;SDS011;31681;48.982;8.394;2023-02-03T07:13:32;3.47;;;1.70;;
45970;SDS011;31681;48.982;8.394;2023-02-03T07:15:57;2.30;;;1.73;;
45970;SDS011;31681;48.982;8.394;2023-02-03T07:18:23;4.93;;;1.50;;
45970;SDS011;31681;48.982;8.394;2023-02-03T07:20:50;4.90;;;1.87;;
45970;SDS011;31681;48.982;8.394;2023-02-03T07:23:16;4.10;;;1.70;;
45970;SDS011;31681;48.982;8.394;2023-02-03T07:25:41;5.03;;;1.93;;
45970;SDS011;31681;48.982;8.394;2023-02-03T07:28:06;3.63;;;1.60;;
45970;SDS011;31681;48.982;8.394;2023-02-03T07:30:32;6.20;;;1.57;;
45970;SDS011;31681;48.982;8.394;2023-02-03T07:32:57;5.83;;;1.50;;
45970;SDS011;31681;48.982;8.394;2023-02-03T07:35:23;4.20;;;1.73;;
45970;SDS011;31681;48.982;8.394;2023-02-03T07:37:48;4.93;;;1.50;;
45970;SDS011;31681;48.982;8.394;2023-02-03T07:40:14;4.50;;;1.93;;
45970;SDS011;31681;48.982;8.394;2023-02-03T07:42:40;2.83;;;1.30;;
45970;SDS011;31681;48.982;8.394;2023-02-03T07:45:06;3.93;;;1.90;;
45970;SDS011;31681;48.982;8.394;2023-02-03T07:47:32;3.53;;;1.90;;
45970;SDS011;31681;48.982;8.394;2023-02-03T07:49:57;2.30;;;1.67;;
45970;SDS011;31681;48.982;8.394;2023-02-03T07:52:22;9.10;;;2.00;;
45970;SDS011;31681;48.982;8.394;2023-02-03T07:54:48;4.57;;;1.63;;
45970;SDS011;31681;48.982;8.394;2023-02-03T07:57:13;3.17;;;1.47;;
45970;SDS011;31681;48.982;8.394;2023-02-03T07:59:38;4.17;;;2.30;;
45970;SDS011;31681;48.982;8.394;2023-02-03T08:02:04;3.33;;;1.70;;
45970;SDS011;31681;48.982;8.394;2023-02-03T08:04:30;2.63;;;1.50;;
45970;SDS011;31681;48.982;8.394;2023-02-03T08:06:55;4.93;;;1.90;;
45970;SDS011;31681;48.982;8.394;2023-02-03T08:09:20;2.70;;;1.80;;
45970;SDS011;31681;48.982;8.394;2023-02-03T08:11:46;3.20;;;1.73;;
45970;SDS011;31681;48.982;8.394;2023-02-03T08:14:12;4.33;;;1.67;;
45970;SDS011;31681;48.982;8.394;2023-02-03T08:16:37;2.50;;;1.63;;
45970;SDS011;31681;48.982;8.394;2023-02-03T08:19:03;2.97;;;1.60;;
45970;SDS011;31681;48.982;8.394;2023-02-03T08:21:28;2.20;;;1.47;;
45970;SDS011;31681;48.982;8.394;2023-02-03T08:23:54;4.53;;;1.63;;
45970;SDS011;31681;48.982;8.394;2023-02-03T08:26:19;1.80;;;1.47;;
45970;SDS011;31681;48.982;8.394;2023-02-03T08:28:47;3.57;;;1.60;;
45970;SDS011;31681;48.982;8.394;2023-02-03T08:31:12;4.00;;;1.70;;
45970;SDS011;31681;48.982;8.394;2023-02-03T08:33:38;3.37;;;1.80;;
45970;SDS011;31681;48.982;8.394;2023-02-03T08:36:03;5.60;;;2.60;;
45970;SDS011;31681;48.982;8.394;2023-02-03T08:38:30;3.83;;;1.63;;
45970;SDS011;31681;48.982;8.394;2023-02-03T08:40:55;2.37;;;1.63;;
45970;SDS011;31681;48.982;8.394;2023-02-03T08:43:21;2.57;;;1.80;;
45970;SDS011;31681;48.982;8.394;2023-02-03T08:45:46;4.27;;;1.80;;
45970;SDS011;31681;48.982;8.394;2023-02-03T08:48:11;7.20;;;1.50;;
45970;SDS011;31681;48.982;8.394;2023-02-03T08:50:39;3.27;;;1.80;;
45970;SDS011;31681;48.982;8.394;2023-02-03T08:53:05;2.43;;;1.90;;
45970;SDS011;31681;48.982;8.394;2023-02-03T08:55:30;6.33;;;2.13;;
45970;SDS011;31681;48.982;8.394;2023-02-03T08:57:55;7.07;;;1.83;;
45970;SDS011;31681;48.982;8.394;2023-02-03T09:00:21;5.20;;;2.60;;
45970;SDS011;31681;48.982;8.394;2023-02-03T09:02:46;8.73;;;2.07;;
45970;SDS011;31681;48.982;8.394;2023-02-03T09:05:12;4.43;;;1.70;;
45970;SDS011;31681;48.982;8.394;2023-02-03T09:07:38;3.87;;;1.97;;
45970;SDS011;31681;48.982;8.394;2023-02-03T09:10:03;3.03;;;1.70;;
45970;SDS011;31681;48.982;8.394;2023-02-03T09:12:29;3.47;;;1.73;;
45970;SDS011;31681;48.982;8.394;2023-02-03T09:14:54;3.97;;;1.73;;
45970;SDS011;31681;48.982;8.394;2023-02-03T09:17:19;3.10;;;1.50;;
45970;SDS011;31681;48.982;8.394;2023-02-03T09:19:45;1.80;;;1.40;;
45970;SDS011;31681;48.982;8.394;2023-02-03T09:22:10;3.83;;;1.80;;
45970;SDS011;31681;48.982;8.394;2023-02-03T09:24:36;5.70;;;1.87;;
45970;SDS011;31681;48.982;8.394;2023-02-03T09:27:01;4.93;;;1.73;;
45970;SDS011;31681;48.982;8.394;2023-02-03T09:29:27;4.20;;;2.20;;
45970;SDS011;31681;48.982;8.394;2023-02-03T09:31:52;4.10;;;2.00;;
45970;SDS011;31681;48.982;8.394;2023-02-03T09:34:18;7.27;;;1.90;;
45970;SDS011;31681;48.982;8.394;2023-02-03T09:36:44;3.13;;;1.60;;
45970;SDS011;31681;48.982;8.394;2023-02-03T09:39:09;5.30;;;2.00;;
45970;SDS011;31681;48.982;8.394;2023-02-03T09:49:55;4.70;;;2.00;;
45970;SDS011;31681;48.982;8.394;2023-02-03T09:52:24;3.17;;;2.13;;
45970;SDS011;31681;48.982;8.394;2023-02-03T09:57:22;2.50;;;1.90;;
45970;SDS011;31681;48.982;8.394;2023-02-03T09:59:48;3.03;;;1.70;;
45970;SDS011;31681;48.982;8.394;2023-02-03T10:04:43;2.13;;;1.53;;
45970;SDS011;31681;48.982;8.394;2023-02-03T10:07:16;2.80;;;1.80;;
45970;SDS011;31681;48.982;8.394;2023-02-03T10:17:30;7.27;;;1.70;;
45970;SDS011;31681;48.982;8.394;2023-02-03T10:22:23;7.13;;;1.90;;
45970;SDS011;31681;48.982;8.394;2023-02-03T10:27:20;2.40;;;1.90;;
45970;SDS011;31681;48.982;8.394;2023-02-03T10:29:48;5.37;;;2.17;;
45970;SDS011;31681;48.982;8.394;2023-02-03T10:32:15;4.30;;;2.07;;
45970;SDS011;31681;48.982;8.394;2023-02-03T10:34:41;7.97;;;2.30;;
45970;SDS011;31681;48.982;8.394;2023-02-03T10:42:02;2.03;;;1.83;;
45970;SDS011;31681;48.982;8.394;2023-02-03T10:44:41;5.20;;;2.07;;
45970;SDS011;31681;48.982;8.394;2023-02-03T10:47:26;3.70;;;2.10;;
45970;SDS011;31681;48.982;8.394;2023-02-03T10:49:54;4.70;;;1.80;;
45970;SDS011;31681;48.982;8.394;2023-02-03T10:52:28;2.70;;;1.53;;
45970;SDS011;31681;48.982;8.394;2023-02-03T10:54:54;4.03;;;1.80;;
45970;SDS011;31681;48.982;8.394;2023-02-03T10:57:20;4.87;;;1.80;;
45970;SDS011;31681;48.982;8.394;2023-02-03T10:59:46;2.90;;;1.77;;
45970;SDS011;31681;48.982;8.394;2023-02-03T11:02:20;4.33;;;2.20;;
45970;SDS011;31681;48.982;8.394;2023-02-03T11:04:46;3.77;;;1.70;;
45970;SDS011;31681;48.982;8.394;2023-02-03T11:07:22;2.67;;;1.67;;
45970;SDS011;31681;48.982;8.394;2023-02-03T11:09:48;3.73;;;1.77;;
45970;SDS011;31681;48.982;8.394;2023-02-03T11:12:15;3.23;;;2.33;;
45970;SDS011;31681;48.982;8.394;2023-02-03T11:14:45;4.00;;;1.90;;
45970;SDS011;31681;48.982;8.394;2023-02-03T11:19:51;2.50;;;1.70;;
45970;SDS011;31681;48.982;8.394;2023-02-03T11:22:30;4.73;;;2.07;;
45970;SDS011;31681;48.982;8.394;2023-02-03T11:24:56;2.50;;;1.77;;
45970;SDS011;31681;48.982;8.394;2023-02-03T11:27:22;3.43;;;1.80;;
45970;SDS011;31681;48.982;8.394;2023-02-03T11:29:55;3.90;;;2.00;;
45970;SDS011;31681;48.982;8.394;2023-02-03T11:32:34;2.53;;;1.67;;
45970;SDS011;31681;48.982;8.394;2023-02-03T11:35:12;3.20;;;1.90;;
45970;SDS011;31681;48.982;8.394;2023-02-03T11:37:43;4.23;;;2.00;;
45970;SDS011;31681;48.982;8.394;2023-02-03T11:42:43;3.27;;;1.77;;
45970;SDS011;31681;48.982;8.394;2023-02-03T11:45:12;5.13;;;2.00;;
45970;SDS011;31681;48.982;8.394;2023-02-03T11:47:37;5.87;;;2.23;;
45970;SDS011;31681;48.982;8.394;2023-02-03T11:52:46;4.50;;;1.93;;
45970;SDS011;31681;48.982;8.394;2023-02-03T11:55:25;5.50;;;2.23;;
45970;SDS011;31681;48.982;8.394;2023-02-03T12:01:04;1.90;;;1.53;;
45970;SDS011;31681;48.982;8.394;2023-02-03T12:09:18;5.03;;;1.40;;
45970;SDS011;31681;48.982;8.394;2023-02-03T12:29:58;2.73;;;0.80;;
45970;SDS011;31681;48.982;8.394;2023-02-03T12:37:24;2.40;;;0.60;;
45970;SDS011;31681;48.982;8.394;2023-02-03T12:43:26;4.47;;;0.87;;
45970;SDS011;31681;48.982;8.394;2023-02-03T12:45:44;1.07;;;0.77;;
45970;SDS011;31681;48.982;8.394;2023-02-03T12:48:14;0.97;;;0.87;;
45970;SDS011;31681;48.982;8.394;2023-02-03T12:50:44;1.52;;;0.70;;
45970;SDS011;31681;48.982;8.394;2023-02-03T12:56:04;0.80;;;0.80;;
45970;SDS011;31681;48.982;8.394;2023-02-03T12:58:31;1.13;;;0.90;;
45970;SDS011;31681;48.982;8.394;2023-02-03T13:09:00;0.80;;;0.80;;
45970;SDS011;31681;48.982;8.394;2023-02-03T13:13:55;1.87;;;0.70;;
45970;SDS011;31681;48.982;8.394;2023-02-03T13:16:27;1.87;;;0.90;;
45970;SDS011;31681;48.982;8.394;2023-02-03T13:18:57;1.77;;;0.87;;
45970;SDS011;31681;48.982;8.394;2023-02-03T13:21:26;0.70;;;0.70;;
45970;SDS011;31681;48.982;8.394;2023-02-03T13:23:51;0.80;;;0.80;;
45970;SDS011;31681;48.982;8.394;2023-02-03T13:41:03;3.03;;;0.87;;
45970;SDS011;31681;48.982;8.394;2023-02-03T13:43:32;3.43;;;0.90;;
45970;SDS011;31681;48.982;8.394;2023-02-03T13:45:58;1.73;;;0.80;;
45970;SDS011;31681;48.982;8.394;2023-02-03T13:48:25;0.77;;;0.77;;
45970;SDS011;31681;48.982;8.394;2023-02-03T13:51:02;2.57;;;1.03;;
45970;SDS011;31681;48.982;8.394;2023-02-03T13:53:30;0.90;;;0.80;;
45970;SDS011;31681;48.982;8.394;2023-02-03T13:56:01;1.87;;;0.67;;
45970;SDS011;31681;48.982;8.394;2023-02-03T13:58:31;1.07;;;0.67;;
45970;SDS011;31681;48.982;8.394;2023-02-03T14:01:01;0.77;;;0.77;;
45970;SDS011;31681;48.982;8.394;2023-02-03T14:05:53;0.80;;;0.80;;
45970;SDS011;31681;48.982;8.394;2023-02-03T14:13:36;0.90;;;0.70;;
45970;SDS011;31681;48.982;8.394;2023-02-03T14:18:45;1.03;;;0.70;;
45970;SDS011;31681;48.982;8.394;2023-02-03T14:21:12;1.00;;;0.50;;
45970;SDS011;31681;48.982;8.394;2023-02-03T14:23:40;1.27;;;0.80;;
45970;SDS011;31681;48.982;8.394;2023-02-03T14:26:12;0.90;;;0.70;;
45970;SDS011;31681;48.982;8.394;2023-02-03T14:28:39;0.70;;;0.67;;
45970;SDS011;31681;48.982;8.394;2023-02-03T14:31:10;0.80;;;0.80;;
45970;SDS011;31681;48.982;8.394;2023-02-03T14:41:49;1.50;;;0.70;;
45970;SDS011;31681;48.982;8.394;2023-02-03T14:49:39;0.50;;;0.50;;
45970;SDS011;31681;48.982;8.394;2023-02-03T14:52:16;1.90;;;0.50;;
45970;SDS011;31681;48.982;8.394;2023-02-03T15:00:04;0.77;;;0.50;;
45970;SDS011;31681;48.982;8.394;2023-02-03T15:02:30;0.50;;;0.50;;
45970;SDS011;31681;48.982;8.394;2023-02-03T15:10:19;0.90;;;0.60;;
45970;SDS011;31681;48.982;8.394;2023-02-03T15:12:56;0.87;;;0.70;;
45970;SDS011;31681;48.982;8.394;2023-02-03T15:15:28;0.90;;;0.60;;
45970;SDS011;31681;48.982;8.394;2023-02-03T15:20:51;0.83;;;0.60;;
45970;SDS011;31681;48.982;8.394;2023-02-03T15:23:37;0.60;;;0.60;;
45970;SDS011;31681;48.982;8.394;2023-02-03T15:26:13;0.87;;;0.87;;
45970;SDS011;31681;48.982;8.394;2023-02-03T15:28:39;0.77;;;0.73;;
45970;SDS011;31681;48.982;8.394;2023-02-03T15:33:36;2.10;;;0.87;;
45970;SDS011;31681;48.982;8.394;2023-02-03T15:36:07;2.97;;;0.90;;
45970;SDS011;31681;48.982;8.394;2023-02-03T15:38:38;0.70;;;0.70;;
45970;SDS011;31681;48.982;8.394;2023-02-03T15:41:06;0.93;;;0.80;;
45970;SDS011;31681;48.982;8.394;2023-02-03T15:43:34;1.87;;;1.00;;
45970;SDS011;31681;48.982;8.394;2023-02-03T15:46:03;0.67;;;0.67;;
45970;SDS011;31681;48.982;8.394;2023-02-03T15:51:11;1.07;;;0.97;;
45970;SDS011;31681;48.982;8.394;2023-02-03T15:54:00;0.77;;;0.77;;
45970;SDS011;31681;48.982;8.394;2023-02-03T16:01:34;1.83;;;0.80;;
45970;SDS011;31681;48.982;8.394;2023-02-03T16:04:00;1.00;;;0.90;;
45970;SDS011;31681;48.982;8.394;2023-02-03T16:08:55;0.90;;;0.90;;
45970;SDS011;31681;48.982;8.394;2023-02-03T16:13:49;1.23;;;0.70;;
45970;SDS011;31681;48.982;8.394;2023-02-03T16:18:50;1.73;;;1.10;;
45970;SDS011;31681;48.982;8.394;2023-02-03T16:21:35;1.47;;;0.80;;
45970;SDS011;31681;48.982;8.394;2023-02-03T16:24:02;1.47;;;0.93;;
45970;SDS011;31681;48.982;8.394;2023-02-03T16:26:29;0.77;;;0.73;;
45970;SDS011;31681;48.982;8.394;2023-02-03T16:28:56;1.47;;;1.00;;
45970;SDS011;31681;48.982;8.394;2023-02-03T16:31:42;0.67;;;0.67;;
45970;SDS011;31681;48.982;8.394;2023-02-03T16:34:27;1.10;;;1.00;;
45970;SDS011;31681;48.982;8.394;2023-02-03T16:37:33;0.87;;;0.80;;
45970;SDS011;31681;48.982;8.394;2023-02-03T16:40:23;0.93;;;0.90;;
45970;SDS011;31681;48.982;8.394;2023-02-03T16:43:09;1.63;;;0.90;;
45970;SDS011;31681;48.982;8.394;2023-02-03T16:45:55;0.90;;;0.90;;
45970;SDS011;31681;48.982;8.394;2023-02-03T16:48:39;1.10;;;1.00;;
45970;SDS011;31681;48.982;8.394;2023-02-03T16:51:23;0.93;;;0.83;;
45970;SDS011;31681;48.982;8.394;2023-02-03T16:53:49;0.80;;;0.80;;
45970;SDS011;31681;48.982;8.394;2023-02-03T16:56:14;2.20;;;0.90;;
45970;SDS011;31681;48.982;8.394;2023-02-03T16:58:42;1.00;;;0.90;;
45970;SDS011;31681;48.982;8.394;2023-02-03T17:01:09;2.00;;;1.03;;
45970;SDS011;31681;48.982;8.394;2023-02-03T17:03:35;1.00;;;0.90;;
45970;SDS011;31681;48.982;8.394;2023-02-03T17:06:06;1.33;;;0.90;;
45970;SDS011;31681;48.982;8.394;2023-02-03T17:08:32;1.30;;;0.93;;
45970;SDS011;31681;48.982;8.394;2023-02-03T17:11:16;3.10;;;0.90;;
45970;SDS011;31681;48.982;8.394;2023-02-03T17:13:42;1.40;;;0.87;;
45970;SDS011;31681;48.982;8.394;2023-02-03T17:16:18;1.20;;;1.00;;
45970;SDS011;31681;48.982;8.394;2023-02-03T17:18:44;1.53;;;1.03;;
45970;SDS011;31681;48.982;8.394;2023-02-03T17:21:11;1.67;;;1.00;;
45970;SDS011;31681;48.982;8.394;2023-02-03T17:23:37;1.00;;;0.90;;
45970;SDS011;31681;48.982;8.394;2023-02-03T17:26:03;3.30;;;1.00;;
45970;SDS011;31681;48.982;8.394;2023-02-03T17:28:28;1.70;;;0.90;;
45970;SDS011;31681;48.982;8.394;2023-02-03T17:30:58;1.33;;;0.93;;
45970;SDS011;31681;48.982;8.394;2023-02-03T17:33:23;1.20;;;1.10;;
45970;SDS011;31681;48.982;8.394;2023-02-03T17:35:54;1.13;;;1.03;;
45970;SDS011;31681;48.982;8.394;2023-02-03T17:38:25;1.43;;;1.00;;
45970;SDS011;31681;48.982;8.394;2023-02-03T17:40:50;1.27;;;1.00;;
45970;SDS011;31681;48.982;8.394;2023-02-03T17:43:16;1.47;;;1.00;;
45970;SDS011;31681;48.982;8.394;2023-02-03T17:45:41;1.20;;;1.10;;
45970;SDS011;31681;48.982;8.394;2023-02-03T17:50:36;1.33;;;1.10;;
45970;SDS011;31681;48.982;8.394;2023-02-03T17:53:02;1.57;;;1.00;;
45970;SDS011;31681;48.982;8.394;2023-02-03T17:55:27;2.43;;;1.13;;
45970;SDS011;31681;48.982;8.394;2023-02-03T17:58:01;1.23;;;1.13;;
45970;SDS011;31681;48.982;8.394;2023-02-03T18:00:26;2.07;;;1.50;;